Lander, WY

3:07 PM MDT on August 04, 2015 (GMT -0600)
APRSWXNET | | Change Station
CLOSE
Current Station
Personal Weather Station
Location: Lander, WY
Elevation: 5807 ft
Nearby Weather Stations

Elev 5807 ft 42.78 °N, 108.77 °W | Updated 28 minutes ago

Clear
Clear
77 °F
Feels Like 78 °F
N
3
Wind Variable Wind from NNE
Gusts 12.0 mph

Today
High -- | Low -- °F
--% Chance of Precip.
Yesterday
High -- | Low -- °F
Precip. -- in
6:09 AM 8:31 PM
Waning Gibbous, 74% visible
Pressure 29.88 in
Visibility 10.0 miles
Clouds Few 4200 ft
Scattered Clouds 8000 ft
Heat Index 78 °F
Dew Point 48 °F
Humidity 36%
Rainfall in
Snow Depth Not available.
UV 8 out of 12
Pollen 5.70 out of 12
Air Quality Not available.
Flu Activity Not available.
METAR KLND 042053Z AUTO 32006KT 10SM FEW042 SCT080 27/08 A3008 RMK AO2 SLP117 T02670083 58004

More Conditions Fewer Conditions

Pressure 29.88 in
Visibility 10.0 miles
Clouds Few 4200 ft
Scattered Clouds 8000 ft
Heat Index 78 °F
Dew Point 48 °F
Humidity 36%
Rainfall in
Snow Depth Not available.
UV 8 out of 12
Pollen 5.70 out of 12
Air Quality Not available.
Flu Activity Not available.
METAR KLND 042053Z AUTO 32006KT 10SM FEW042 SCT080 27/08 A3008 RMK AO2 SLP117 T02670083 58004

More Conditions Fewer Conditions

10-Day Weather Forecast

×

Almanac

Astronomy

Aug. 04, 2015 Rise Set
Actual Time
Civil Twilight
Nautical Twilight
Astronomical Twilight
Moon
Length of Visible Light
Length of Day
Tomorrow will be .
, % of the Moon is Illuminated

Today's Extremes

State Highs State Lows

Community

WunderPhotos

Upload Photos

1,843,980 photos uploaded!

WunderBlogs® & News

Nearby

Air Quality

  Air Quality AQ Index Pollutant
Not available.

Snow Depth

Station Depth Elevation

Earthquake Activity

City Distance Mag. Time & Date
Minimum magnitude displayed is 2.5.

Coastal Water Temperatures

Place Temperature

Stations

Nearby Weather Stations

Station Location Temp. Windchill Dew Point Humidity Wind Precip. Elev Updated Type